Hauptseite
METAR-TAF:

METAR-TAF

Flughäfen :

Flughafen Parma

Parma, Italien

Breite: 44-49-17N, Länge: 010-17-41E, Höhe: 50 m

Beobachtung

Neuester Wetterbericht von vor 7 Stunden und 26 Minuten, um 18:50 UTC
Wind 11 kt aus Ost
Temperatur 22°C
Luftfeuchtigkeit 69%
Luftdruck 1015 hPa
Sichtweite 10 km oder mehr
Durchbrochene Bewölkung in der Höhe von 3000 ft

METAR: LIMP 221850Z 09011KT 9999 BKN030 22/16 Q1015

Zeit: 04:16 (02:16 UTC)

Prognose

Neuester Wetterbericht von vor 9 Stunden und 16 Minuten, um 17:00 UTC
Gültige Prognose vom 22 um 18 UTC bis 23 um 18 UTC
Wind 12 kt aus Ost
Sichtweite 10 km oder mehr
Aufgelockert bewölkt in der Höhe von 5000 ft
Übergehend zu
vom 22 um 20 UTC bis 22 um 22 UTC
Wind 5 kt aus unterschiedlichen Richtungen

TAF: LIMP 221700Z 2218/2318 09012KT 9999 SCT050 BECMG 2220/2222 VRB05KT

Wetterbeobachtungen und Prognosen von mehr als 4000 Flughäfen (METAR und TAF Bericht).

Die verfügbaren Stationen werden durch gelbe und rote Markierungen auf der Karte dargestellt.

Führen Sie die Maus auf sie, um den Namen der Station zu sehen.

Darauf klicken, um die Beobachtung von Wetterbeobachtungen und Prognosen zu sehen.

Um die Karte zu ändern : klicken Sie auf den grünen Tasten mit einem schwarzen Kreuz Zum Vergrößern, auf den grünen Button mit einem Gedankenstrich zu verkleinern, oder auf die grünen Pfeile für benachbarte Karten.


METAR-TAF: